Strona główna
METAR-TAF:

METAR-TAF

Lotnisko :

Georgetown, Wyspa Wniebowstąpienia

Baza lotnicza RAF Wideawake

Szerokość geograficzna: 07-58S, Długość geograficzna: 014-24W, wysokość: 86 m

Aktualna obserwacja pogody

Raport powstał 2 godziny i 57 minut temu, godzina 08:50 UTC
Wiatr 11 kt od południowy wschód
Temperatura 24°C
Wilgotność 94%
Ciśnienie 1014 hPa
Widzialność: 7000 m
Mało chmury na wysokości 900 ft
Rozproszone chmury na wysokości 1300 ft
Przerywane chmury na wysokości 2500 ft
słaby przelotny opad deszczu

METAR: FHAW 180850Z 13011KT 7000 -SHRA FEW009 SCT013 BKN025 24/23 Q1014 GRN

czas: 11:47 (11:47 UTC)


TAF: brakujący

Obserwacja i prognoza pogody dla ponad 4000 lotnisk (raport METAR i TAF).

Dostępne stacje oznaczono żółtymi i czerwonymi punktami na mapie.

Najedź kursorem aby zobaczyć nazwę stacji.

Kliknij aby zobaczyć obserwacje i prognozy pogody.

Aby zmienić mapę: kliknij na zielony przycisk z czarnym krzyżykiem, aby powiększyć; na zielony przycisk z myślnikiem, aby pomniejszyć; na zielone strzałki, aby przejść do map sąsiednich.


METAR-TAF: